createdAt,value
2023-02-18T00:01:18.543Z,8.38
2023-02-18T00:03:45.833Z,8.45
2023-02-18T00:06:16.742Z,7.47
2023-02-18T00:08:43.960Z,6.05
2023-02-18T00:11:10.830Z,8.05
2023-02-18T00:13:37.765Z,6.45
2023-02-18T00:16:12.546Z,6.05
2023-02-18T00:18:39.558Z,6.53
2023-02-18T00:21:07.122Z,7.70
2023-02-18T00:23:34.172Z,6.68
2023-02-18T00:26:02.404Z,7.07
2023-02-18T00:28:29.393Z,7.97
2023-02-18T00:30:56.382Z,6.15
2023-02-18T00:33:23.866Z,8.50
2023-02-18T00:35:50.662Z,8.10
2023-02-18T00:38:17.560Z,7.55
2023-02-18T00:40:44.541Z,6.95
2023-02-18T00:43:11.532Z,9.23
2023-02-18T00:45:39.522Z,6.43
2023-02-18T00:48:06.368Z,7.72
2023-02-18T00:50:33.231Z,7.43
2023-02-18T00:53:00.188Z,8.00
2023-02-18T00:55:27.034Z,7.30
2023-02-18T00:57:53.860Z,7.05
2023-02-18T01:00:20.941Z,8.18
2023-02-18T01:02:47.807Z,6.97
2023-02-18T01:05:14.701Z,7.00
2023-02-18T01:07:41.851Z,7.43
2023-02-18T01:10:09.008Z,8.05
2023-02-18T01:12:35.959Z,7.68
2023-02-18T01:15:04.307Z,6.80
2023-02-18T01:17:31.263Z,4.95
2023-02-18T01:19:58.236Z,5.35
2023-02-18T01:22:25.047Z,6.30
2023-02-18T01:24:52.010Z,4.95
2023-02-18T01:27:19.025Z,4.72
2023-02-18T01:29:45.866Z,6.85
2023-02-18T01:32:12.882Z,6.05
2023-02-18T01:34:41.194Z,4.28
2023-02-18T01:37:07.967Z,4.65
2023-02-18T01:39:35.868Z,5.38
2023-02-18T01:42:02.788Z,5.50
2023-02-18T01:44:29.866Z,4.78
2023-02-18T01:46:56.868Z,4.45
2023-02-18T01:49:32.914Z,4.50
2023-02-18T01:52:05.173Z,3.83
2023-02-18T01:54:39.955Z,4.45
2023-02-18T01:57:09.803Z,4.30
2023-02-18T01:59:40.609Z,4.63
2023-02-18T02:02:08.937Z,3.90
2023-02-18T02:04:35.810Z,4.10
2023-02-18T02:07:02.893Z,3.85
2023-02-18T02:09:30.017Z,4.18
2023-02-18T02:12:18.377Z,3.92
2023-02-18T02:15:09.984Z,4.32
2023-02-18T02:17:58.880Z,3.33
2023-02-18T02:21:03.022Z,4.53
2023-02-18T02:24:12.467Z,3.53
2023-02-18T02:26:42.397Z,3.85
2023-02-18T02:29:24.827Z,3.33
2023-02-18T02:32:30.007Z,3.70
2023-02-18T02:35:09.508Z,4.30
2023-02-18T02:37:46.712Z,3.58
2023-02-18T02:40:20.801Z,3.63
2023-02-18T02:43:23.619Z,1.80
2023-02-18T02:46:00.602Z,4.40
2023-02-18T02:48:56.668Z,4.10
2023-02-18T02:51:38.223Z,3.83
2023-02-18T02:54:27.039Z,4.80
2023-02-18T02:57:11.993Z,4.25
2023-02-18T02:59:52.461Z,4.93
2023-02-18T03:02:35.461Z,3.35
2023-02-18T03:05:24.635Z,7.13
2023-02-18T03:08:04.484Z,4.80
2023-02-18T03:14:10.451Z,5.82
2023-02-18T03:16:57.742Z,5.03
2023-02-18T03:19:33.484Z,3.35
2023-02-18T03:22:13.438Z,4.95
2023-02-18T03:24:42.513Z,6.43
2023-02-18T03:27:23.549Z,6.72
2023-02-18T03:29:54.180Z,5.18
2023-02-18T03:32:22.143Z,6.75
2023-02-18T03:34:51.681Z,4.50
2023-02-18T03:37:18.967Z,4.53
2023-02-18T03:39:50.073Z,5.53
2023-02-18T03:42:18.680Z,6.47
2023-02-18T03:44:45.546Z,5.57
2023-02-18T03:47:12.452Z,5.90
2023-02-18T03:49:39.260Z,7.72
2023-02-18T03:52:06.581Z,4.25
2023-02-18T03:54:34.742Z,6.97
2023-02-18T03:57:01.625Z,8.65
2023-02-18T03:59:28.358Z,7.38
2023-02-18T04:01:55.259Z,5.15
2023-02-18T04:04:22.126Z,4.70
2023-02-18T04:06:48.920Z,6.40
2023-02-18T04:09:15.800Z,7.20
2023-02-18T04:11:42.622Z,5.35
2023-02-18T04:14:09.450Z,8.65
2023-02-18T04:16:36.370Z,5.88
2023-02-18T04:19:03.168Z,5.57
2023-02-18T04:21:30.022Z,6.68
2023-02-18T04:23:56.810Z,5.35
2023-02-18T04:26:23.849Z,7.45
2023-02-18T04:28:50.748Z,6.82
2023-02-18T04:31:17.645Z,5.97
2023-02-18T04:33:44.519Z,7.82
2023-02-18T04:36:11.358Z,4.38
2023-02-18T04:38:38.198Z,5.05
2023-02-18T04:41:05.049Z,6.22
2023-02-18T04:43:31.923Z,6.32
2023-02-18T04:45:58.818Z,5.88
2023-02-18T04:48:25.796Z,4.68
2023-02-18T04:50:52.587Z,5.47
2023-02-18T04:53:19.352Z,4.78
2023-02-18T04:55:50.625Z,6.28
2023-02-18T04:58:17.865Z,4.22
2023-02-18T05:00:44.694Z,4.60
2023-02-18T05:03:11.539Z,4.10
2023-02-18T05:05:38.381Z,4.05
2023-02-18T05:08:05.332Z,6.10
2023-02-18T05:10:32.105Z,6.38
2023-02-18T05:12:58.932Z,4.25
2023-02-18T05:15:25.887Z,6.78
2023-02-18T05:17:52.801Z,4.22
2023-02-18T05:20:19.599Z,5.50
2023-02-18T05:22:46.352Z,5.43
2023-02-18T05:25:13.185Z,5.68
2023-02-18T05:27:39.981Z,6.78
2023-02-18T05:30:07.331Z,3.63
2023-02-18T05:32:34.250Z,4.75
2023-02-18T05:35:01.002Z,5.22
2023-02-18T05:37:27.787Z,4.25
2023-02-18T05:39:54.541Z,3.90
2023-02-18T05:42:21.380Z,3.63
2023-02-18T05:44:48.128Z,2.88
2023-02-18T05:47:15.071Z,4.15
2023-02-18T05:49:42.259Z,4.88
2023-02-18T05:52:09.398Z,4.85
2023-02-18T05:54:36.443Z,4.05
2023-02-18T05:57:03.499Z,6.78
2023-02-18T05:59:30.391Z,3.22
2023-02-18T06:01:57.247Z,5.35
2023-02-18T06:04:24.017Z,5.55
2023-02-18T06:06:50.858Z,2.45
2023-02-18T06:09:17.677Z,6.20
2023-02-18T06:11:44.536Z,3.38
2023-02-18T06:14:11.266Z,3.47
2023-02-18T06:16:38.123Z,6.00
2023-02-18T06:19:05.083Z,4.75
2023-02-18T06:21:32.089Z,2.67
2023-02-18T06:23:59.007Z,5.03
2023-02-18T06:26:26.428Z,3.60
2023-02-18T06:28:53.246Z,3.85
2023-02-18T06:31:20.241Z,4.10
2023-02-18T06:33:47.195Z,5.63
2023-02-18T06:36:14.206Z,3.17
2023-02-18T06:38:42.309Z,4.32
2023-02-18T06:41:09.263Z,3.97
2023-02-18T06:43:36.122Z,5.20
2023-02-18T06:46:03.627Z,4.25
2023-02-18T06:48:30.464Z,3.17
2023-02-18T06:50:57.474Z,3.55
2023-02-18T06:53:24.293Z,5.53
2023-02-18T06:55:51.130Z,5.40
2023-02-18T06:58:17.970Z,3.83
2023-02-18T07:00:45.120Z,3.78
2023-02-18T07:03:13.220Z,5.97
2023-02-18T07:05:40.076Z,2.95
2023-02-18T07:08:06.912Z,5.55
2023-02-18T07:10:33.924Z,6.00
2023-02-18T07:13:00.784Z,5.10
2023-02-18T07:15:28.036Z,6.57
2023-02-18T07:17:54.993Z,4.22
2023-02-18T07:20:22.013Z,4.47
2023-02-18T07:22:49.089Z,3.85
2023-02-18T07:25:16.025Z,5.28
2023-02-18T07:27:42.920Z,5.10
2023-02-18T07:30:10.251Z,6.22
2023-02-18T07:32:37.165Z,5.28
2023-02-18T07:35:05.189Z,3.83
2023-02-18T07:37:32.142Z,4.78
2023-02-18T07:39:59.141Z,4.18
2023-02-18T07:42:26.020Z,5.35
2023-02-18T07:44:52.868Z,3.05
2023-02-18T07:47:19.863Z,5.55
2023-02-18T07:49:47.245Z,3.90
2023-02-18T07:52:14.861Z,4.03
2023-02-18T07:54:41.999Z,6.53
2023-02-18T07:57:08.857Z,4.07
2023-02-18T07:59:35.825Z,2.65
2023-02-18T08:02:05.413Z,6.32
2023-02-18T08:04:32.467Z,5.75
2023-02-18T08:06:59.302Z,6.07
2023-02-18T08:09:26.157Z,5.05
2023-02-18T08:11:53.017Z,5.95
2023-02-18T08:14:19.925Z,4.05
2023-02-18T08:16:46.782Z,4.00
2023-02-18T08:19:13.727Z,3.17
2023-02-18T08:21:40.762Z,3.65
2023-02-18T08:24:08.253Z,4.25
2023-02-18T08:26:35.321Z,5.38
2023-02-18T08:29:02.186Z,3.58
2023-02-18T08:31:29.875Z,6.32
2023-02-18T08:33:57.702Z,4.18
2023-02-18T08:36:24.599Z,3.50
2023-02-18T08:38:51.401Z,3.25
2023-02-18T08:41:21.153Z,4.65
2023-02-18T08:43:48.136Z,5.28
2023-02-18T08:46:16.511Z,3.28
2023-02-18T08:48:45.733Z,4.78
2023-02-18T08:51:17.599Z,5.43
2023-02-18T08:53:46.341Z,6.97
2023-02-18T08:56:14.558Z,3.67
2023-02-18T08:58:41.791Z,6.13
2023-02-18T09:01:10.592Z,2.95
2023-02-18T09:03:37.822Z,3.60
2023-02-18T09:06:08.464Z,6.43
2023-02-18T09:08:35.513Z,3.67
2023-02-18T09:11:04.491Z,3.53
2023-02-18T09:13:32.271Z,7.18
2023-02-18T09:16:03.660Z,4.03
2023-02-18T09:18:31.125Z,4.27
2023-02-18T09:20:58.809Z,3.70
2023-02-18T09:23:26.768Z,4.93
2023-02-18T09:25:53.614Z,4.85
2023-02-18T09:28:20.519Z,3.53
2023-02-18T09:30:47.399Z,6.25
2023-02-18T09:33:14.339Z,4.95
2023-02-18T09:35:42.286Z,5.43
2023-02-18T09:38:10.373Z,4.22
2023-02-18T09:40:39.163Z,4.85
2023-02-18T09:43:06.109Z,7.32
2023-02-18T09:45:33.054Z,5.18
2023-02-18T09:47:59.932Z,6.43
2023-02-18T09:50:31.977Z,4.18
2023-02-18T09:52:59.383Z,2.50
2023-02-18T09:55:33.726Z,6.05
2023-02-18T09:58:07.223Z,6.78
2023-02-18T10:00:39.675Z,5.35
2023-02-18T10:03:20.036Z,4.75
2023-02-18T10:05:50.370Z,5.97
2023-02-18T10:08:24.978Z,7.07
2023-02-18T10:10:51.881Z,7.35
2023-02-18T10:13:20.677Z,5.20
2023-02-18T10:15:47.825Z,4.00
2023-02-18T10:18:25.874Z,7.30
2023-02-18T10:20:53.526Z,5.60
2023-02-18T10:23:20.644Z,6.82
2023-02-18T10:25:47.984Z,8.13
2023-02-18T10:28:14.914Z,5.25
2023-02-18T10:30:43.361Z,6.45
2023-02-18T10:33:31.514Z,5.70
2023-02-18T10:36:10.595Z,3.22
2023-02-18T10:39:02.996Z,3.63
2023-02-18T10:42:08.731Z,6.15
2023-02-18T10:44:44.865Z,6.65
2023-02-18T10:47:21.007Z,4.82
2023-02-18T10:49:58.145Z,4.63
2023-02-18T10:52:27.176Z,4.22
2023-02-18T10:55:01.418Z,7.60
2023-02-18T10:57:28.309Z,4.63
2023-02-18T11:00:00.842Z,5.22
2023-02-18T11:02:32.619Z,4.75
2023-02-18T11:05:00.831Z,4.80
2023-02-18T11:07:33.885Z,4.18
2023-02-18T11:10:27.193Z,5.50
2023-02-18T11:13:01.993Z,5.75
2023-02-18T11:15:29.053Z,4.03
2023-02-18T11:17:57.575Z,3.08
2023-02-18T11:20:31.829Z,6.07
2023-02-18T11:23:19.842Z,5.13
2023-02-18T11:26:01.012Z,5.50
2023-02-18T11:28:37.645Z,4.05
2023-02-18T11:31:05.325Z,6.72
2023-02-18T11:33:47.680Z,3.67
2023-02-18T11:36:35.491Z,3.92
2023-02-18T11:39:07.639Z,3.35
2023-02-18T11:41:46.944Z,4.95
2023-02-18T11:44:28.504Z,3.20
2023-02-18T11:46:59.859Z,5.17
2023-02-18T11:49:26.813Z,3.47
2023-02-18T11:51:53.691Z,5.50
2023-02-18T11:54:30.021Z,5.75
2023-02-18T11:57:09.728Z,3.85
2023-02-18T11:59:38.019Z,4.55
2023-02-18T12:02:11.090Z,4.32
2023-02-18T12:04:42.181Z,3.80
2023-02-18T12:07:23.102Z,4.45
2023-02-18T12:10:01.257Z,6.55
2023-02-18T12:12:33.472Z,5.28
2023-02-18T12:17:33.130Z,3.83
2023-02-18T12:20:15.817Z,5.55
2023-02-18T12:22:43.780Z,6.60
2023-02-18T12:25:28.895Z,4.07
2023-02-18T12:28:04.602Z,6.70
2023-02-18T12:30:46.624Z,5.80
2023-02-18T12:33:28.968Z,4.60
2023-02-18T12:36:09.412Z,4.28
2023-02-18T12:38:42.521Z,4.38
2023-02-18T12:41:10.057Z,4.20
2023-02-18T12:43:37.157Z,5.07
2023-02-18T12:46:27.952Z,4.50
2023-02-18T12:49:22.442Z,3.58
2023-02-18T12:52:07.996Z,3.75
2023-02-18T12:54:44.661Z,3.58
2023-02-18T12:57:23.699Z,5.25
2023-02-18T13:00:22.887Z,4.47
2023-02-18T13:03:16.956Z,4.45
2023-02-18T13:05:58.913Z,3.95
2023-02-18T13:08:41.613Z,5.80
2023-02-18T13:11:27.195Z,5.30
2023-02-18T13:13:58.441Z,5.88
2023-02-18T13:16:25.473Z,5.95
2023-02-18T13:19:02.785Z,6.15
2023-02-18T13:21:30.044Z,6.57
2023-02-18T13:24:02.222Z,6.03
2023-02-18T13:26:30.209Z,6.43
2023-02-18T13:29:32.722Z,3.60
2023-02-18T13:32:14.865Z,5.50
2023-02-18T13:35:13.032Z,5.97
2023-02-18T13:37:45.963Z,4.78
2023-02-18T13:40:24.552Z,5.97
2023-02-18T13:42:52.413Z,6.32
2023-02-18T13:45:26.378Z,5.28
2023-02-18T13:47:53.586Z,5.20
2023-02-18T13:50:25.638Z,4.57
2023-02-18T13:53:14.038Z,5.00
2023-02-18T13:56:10.475Z,4.43
2023-02-18T13:58:42.723Z,5.05
2023-02-18T14:01:12.349Z,4.57
2023-02-18T14:03:45.999Z,4.63
2023-02-18T14:06:17.062Z,4.70
2023-02-18T14:08:44.046Z,4.72
2023-02-18T14:11:14.386Z,3.72
2023-02-18T14:13:52.881Z,5.05
2023-02-18T14:16:20.332Z,5.03
2023-02-18T14:18:47.107Z,5.65
2023-02-18T14:21:13.958Z,4.45
2023-02-18T14:23:55.372Z,4.95
2023-02-18T14:26:31.014Z,5.53
2023-02-18T14:29:04.631Z,8.50
2023-02-18T14:32:10.552Z,6.43
2023-02-18T14:34:53.276Z,9.50
2023-02-18T14:37:36.631Z,4.93
2023-02-18T14:40:33.793Z,5.20
2023-02-18T14:43:27.536Z,4.30
2023-02-18T14:46:09.280Z,5.45
2023-02-18T14:49:03.498Z,5.63
2023-02-18T14:51:31.749Z,4.80
2023-02-18T14:54:06.516Z,4.10
2023-02-18T14:56:37.395Z,4.30
2023-02-18T14:59:04.889Z,4.97
2023-02-18T15:01:33.506Z,5.18
2023-02-18T15:04:00.870Z,4.07
2023-02-18T15:06:33.136Z,6.07
2023-02-18T15:09:00.833Z,4.55
2023-02-18T15:12:04.644Z,2.85
2023-02-18T15:14:40.361Z,4.38
2023-02-18T15:17:08.629Z,4.47
2023-02-18T15:19:42.992Z,3.97
2023-02-18T15:22:39.410Z,5.15
2023-02-18T15:25:06.650Z,4.82
2023-02-18T15:27:35.128Z,3.75
2023-02-18T15:30:20.811Z,3.60
2023-02-18T15:32:55.617Z,3.97
2023-02-18T15:35:23.279Z,4.22
2023-02-18T15:37:55.549Z,4.53
2023-02-18T15:42:50.949Z,5.82
2023-02-18T15:45:19.889Z,6.88
2023-02-18T15:47:49.054Z,6.78
2023-02-18T15:50:30.955Z,7.88
2023-02-18T15:53:04.235Z,5.45
2023-02-18T15:55:33.239Z,5.55
2023-02-18T15:58:01.825Z,4.63
2023-02-18T16:00:49.150Z,5.03
2023-02-18T16:03:21.126Z,5.07
2023-02-18T16:05:48.054Z,4.03
2023-02-18T16:08:32.800Z,4.65
2023-02-18T16:11:03.768Z,5.43
2023-02-18T16:13:31.427Z,3.50
2023-02-18T16:16:00.842Z,3.67
2023-02-18T16:18:30.273Z,3.97
2023-02-18T16:21:07.191Z,4.13
2023-02-18T16:23:36.798Z,3.92
2023-02-18T16:26:24.102Z,5.22
2023-02-18T16:28:51.689Z,4.45
2023-02-18T16:31:20.566Z,5.10
2023-02-18T16:33:49.196Z,5.53
2023-02-18T16:36:17.245Z,5.00
2023-02-18T16:38:45.158Z,4.85
2023-02-18T16:41:13.229Z,4.20
2023-02-18T16:43:40.241Z,3.53
2023-02-18T16:46:16.177Z,5.10
2023-02-18T16:48:47.138Z,5.30
2023-02-18T16:51:14.040Z,4.38
2023-02-18T16:53:40.870Z,3.42
2023-02-18T16:56:18.171Z,6.30
2023-02-18T16:58:45.154Z,4.03
2023-02-18T17:01:31.899Z,3.30
2023-02-18T17:03:59.085Z,2.55
2023-02-18T17:06:26.203Z,3.40
2023-02-18T17:08:53.093Z,4.43
2023-02-18T17:11:25.741Z,3.92
2023-02-18T17:13:53.380Z,4.53
2023-02-18T17:16:20.650Z,2.53
2023-02-18T17:18:47.821Z,3.97
2023-02-18T17:21:24.475Z,4.28
2023-02-18T17:23:51.633Z,4.03
2023-02-18T17:26:24.592Z,3.90
2023-02-18T17:28:52.504Z,5.10
2023-02-18T17:31:23.279Z,4.15
2023-02-18T17:33:50.329Z,3.50
2023-02-18T17:36:17.281Z,4.80
2023-02-18T17:38:44.105Z,5.38
2023-02-18T17:41:11.912Z,4.32
2023-02-18T17:43:39.310Z,5.72
2023-02-18T17:46:06.434Z,5.30
2023-02-18T17:48:33.339Z,5.25
2023-02-18T17:51:00.499Z,4.88
2023-02-18T17:53:27.432Z,4.03
2023-02-18T17:55:54.581Z,6.78
2023-02-18T17:58:21.496Z,5.25
2023-02-18T18:00:49.421Z,6.45
2023-02-18T18:03:16.457Z,6.68
2023-02-18T18:05:44.916Z,4.88
2023-02-18T18:08:12.081Z,8.65
2023-02-18T18:10:55.246Z,5.45
2023-02-18T18:13:29.687Z,9.50
2023-02-18T18:15:57.935Z,6.97
2023-02-18T18:18:25.597Z,8.30
2023-02-18T18:20:53.932Z,6.50
2023-02-18T18:23:21.266Z,7.10
2023-02-18T18:25:50.532Z,6.13
2023-02-18T18:28:17.639Z,10.20
2023-02-18T18:30:46.262Z,7.50
2023-02-18T18:33:18.692Z,5.68
2023-02-18T18:38:13.873Z,7.30
2023-02-18T18:40:40.887Z,6.75
2023-02-18T18:43:07.767Z,9.27
2023-02-18T18:45:39.392Z,9.27
2023-02-18T18:48:06.642Z,9.52
2023-02-18T18:50:42.420Z,8.60
2023-02-18T18:53:18.579Z,5.88
2023-02-18T18:55:45.631Z,8.43
2023-02-18T18:58:12.476Z,17.00
2023-02-18T19:00:41.370Z,11.45
2023-02-18T19:03:10.286Z,13.23
2023-02-18T19:05:39.380Z,12.23
2023-02-18T19:08:06.968Z,8.73
2023-02-18T19:10:38.508Z,7.93
2023-02-18T19:13:13.828Z,10.80
2023-02-18T19:15:40.729Z,6.57
2023-02-18T19:18:07.881Z,7.20
2023-02-18T19:20:38.355Z,7.93
2023-02-18T19:23:05.273Z,8.85
2023-02-18T19:25:32.228Z,8.88
2023-02-18T19:27:59.174Z,10.68
2023-02-18T19:30:29.560Z,8.55
2023-02-18T19:32:57.578Z,9.40
2023-02-18T19:35:25.100Z,10.05
2023-02-18T19:37:52.072Z,8.30
2023-02-18T19:40:20.664Z,9.45
2023-02-18T19:42:47.742Z,9.93
2023-02-18T19:45:14.856Z,10.75
2023-02-18T19:47:41.768Z,11.85
2023-02-18T19:50:09.994Z,9.55
2023-02-18T19:52:36.901Z,9.93
2023-02-18T19:55:03.815Z,11.75
2023-02-18T19:57:30.664Z,10.70
2023-02-18T19:59:57.558Z,8.90
2023-02-18T20:02:25.375Z,9.25
2023-02-18T20:04:52.326Z,10.63
2023-02-18T20:07:19.880Z,12.60
2023-02-18T20:09:46.700Z,10.88
2023-02-18T20:12:13.787Z,11.82
2023-02-18T20:14:43.013Z,10.88
2023-02-18T20:17:10.071Z,10.65
2023-02-18T20:19:36.937Z,10.77
2023-02-18T20:22:03.907Z,11.75
2023-02-18T20:24:31.343Z,12.55
2023-02-18T20:26:58.687Z,12.75
2023-02-18T20:29:26.001Z,13.82
2023-02-18T20:31:53.649Z,9.90
2023-02-18T20:34:20.728Z,13.48
2023-02-18T20:36:49.000Z,12.57
2023-02-18T20:39:16.603Z,14.05
2023-02-18T20:41:43.677Z,13.77
2023-02-18T20:44:10.667Z,10.18
2023-02-18T20:46:38.144Z,11.25
2023-02-18T20:49:06.674Z,13.23
2023-02-18T20:51:33.686Z,13.95
2023-02-18T20:54:00.802Z,13.75
2023-02-18T20:56:27.663Z,13.70
2023-02-18T20:58:54.597Z,11.90
2023-02-18T21:01:21.882Z,14.00
2023-02-18T21:03:48.930Z,18.63
2023-02-18T21:06:17.201Z,13.50
2023-02-18T21:08:44.852Z,12.98
2023-02-18T21:11:15.795Z,13.27
2023-02-18T21:13:42.782Z,14.18
2023-02-18T21:16:09.753Z,15.77
2023-02-18T21:18:36.723Z,12.52
2023-02-18T21:21:04.772Z,14.07
2023-02-18T21:23:31.732Z,13.63
2023-02-18T21:26:06.296Z,15.32
2023-02-18T21:28:34.521Z,13.02
2023-02-18T21:31:01.472Z,12.50
2023-02-18T21:33:28.411Z,14.13
2023-02-18T21:35:55.340Z,13.77
2023-02-18T21:38:22.287Z,12.65
2023-02-18T21:40:49.193Z,11.23
2023-02-18T21:43:16.138Z,15.38
2023-02-18T21:45:42.991Z,11.65
2023-02-18T21:48:28.201Z,16.02
2023-02-18T21:50:55.126Z,11.88
2023-02-18T21:53:22.372Z,15.05
2023-02-18T21:56:03.028Z,16.67
2023-02-18T21:58:30.603Z,13.60
2023-02-18T22:00:58.241Z,14.70
2023-02-18T22:03:25.281Z,14.77
2023-02-18T22:05:52.136Z,15.25
2023-02-18T22:08:19.074Z,12.68
2023-02-18T22:10:45.925Z,12.82
2023-02-18T22:13:12.779Z,14.30
2023-02-18T22:15:41.953Z,13.93
2023-02-18T22:18:08.955Z,16.33
2023-02-18T22:20:37.881Z,17.08
2023-02-18T22:23:04.731Z,17.52
2023-02-18T22:25:31.564Z,17.48
2023-02-18T22:27:58.401Z,14.55
2023-02-18T22:30:25.343Z,17.52
2023-02-18T22:32:52.250Z,16.20
2023-02-18T22:35:19.073Z,17.33
2023-02-18T22:37:45.942Z,14.98
2023-02-18T22:40:12.826Z,12.45
2023-02-18T22:42:39.789Z,19.50
2023-02-18T22:45:07.216Z,20.25
2023-02-18T22:47:34.566Z,15.48
2023-02-18T22:50:01.446Z,20.33
2023-02-18T22:52:28.300Z,17.17
2023-02-18T22:54:55.129Z,16.35
2023-02-18T22:57:21.991Z,15.98
2023-02-18T22:59:48.996Z,18.55
2023-02-18T23:02:15.877Z,11.70
2023-02-18T23:04:42.823Z,16.35
2023-02-18T23:07:09.664Z,15.65
2023-02-18T23:09:36.509Z,14.88
2023-02-18T23:12:03.356Z,14.05
2023-02-18T23:14:30.661Z,17.13
2023-02-18T23:17:14.041Z,14.77
2023-02-18T23:19:41.614Z,17.38
2023-02-18T23:22:09.944Z,17.65
2023-02-18T23:24:38.950Z,13.93
2023-02-18T23:27:06.106Z,17.25
2023-02-18T23:29:33.058Z,18.73
2023-02-18T23:31:59.909Z,20.63
2023-02-18T23:34:26.931Z,15.55
2023-02-18T23:36:53.832Z,17.33
2023-02-18T23:39:21.663Z,15.23
2023-02-18T23:41:48.880Z,17.42
2023-02-18T23:44:17.531Z,16.38
2023-02-18T23:46:47.544Z,18.73
2023-02-18T23:49:16.071Z,19.73
2023-02-18T23:51:43.159Z,14.80
2023-02-18T23:54:10.343Z,16.48
2023-02-18T23:56:37.274Z,12.07
2023-02-18T23:59:04.978Z,14.25
